Koyukuk, AK (99754)

3:15 AM AKDT on July 23, 2016 (GMT -0800)
Pitka | | Change Station

Elev 151 ft 64.74 °N, 156.94 °W | Updated 17 minutes ago

Overcast
Overcast
54 °F
Feels Like 54 °F
N
13
Wind Variable Wind from WSW

Today
High -- | Low -- °F
--% Chance of Precip.
Yesterday
High -- | Low -- °F
Precip. -- in
Pressure 29.73 in
Visibility 10.0 miles
Clouds Overcast 2700 ft
Dew Point 51 °F
Humidity 90%
Rainfall 0.00 in
Snow Depth Not available.
5:01 AM 0:10 AM
Waning Gibbous, 86% visible
METAR PAGA 231058Z AUTO 25011KT 10SM OVC027 12/11 A2971 RMK AO2 SLP068 T01220106
Pressure 29.73 in
Visibility 10.0 miles
Clouds Overcast 2700 ft
Dew Point 51 °F
Humidity 90%
Rainfall 0.00 in
Snow Depth Not available.
5:01 AM 0:10 AM
Waning Gibbous, 86% visible
METAR PAGA 231058Z AUTO 25011KT 10SM OVC027 12/11 A2971 RMK AO2 SLP068 T01220106

10-Day Weather Forecast

Almanac

Astronomy

Jul. 23, 2016 Rise Set
Actual Time
Civil Twilight
Nautical Twilight
Astronomical Twilight
Moon
Length of Visible Light
Length of Day
Tomorrow will be .
, % of the Moon is Illuminated

Today's Extremes

State Highs State Lows

Community

WunderPhotos

Upload Photos

1,926,798 photos uploaded!

WunderBlog® & News

Nearby

Air Quality

  Air Quality AQ Index Pollutant
Not available.

Snow Depth

Station Depth Elevation

Earthquake Activity

City Distance Mag. Time & Date
Minimum magnitude displayed is 2.5.

Coastal Water Temperatures

Place Temperature

Stations

Nearby Weather Stations

Station Location Temp. Windchill Dew Point Humidity Wind Precip. Elev Updated Type
                   

Watches & Warnings

There are currently no watches in effect.